sim
Sign-in with your pilot id or email,
or register
Callsign
Passwort

Schedule Details

Flight Number: OEO0022
Departure: Tromso Airport (ENTC) at 10:00
Arrival: Lisbon Humberto Delgado Airport (LPPT) at 15:00
Route:

Weather Information
Getting current METAR information for ENTC 190220Z 28015KT 9999 -RA FEW005 SCT028 BKN036 07/04 Q1008 RMK WIND 2600FT 31036KT
Getting current METAR information for LPPT 190230Z 24008KT 9999 FEW012 18/18 Q1014

Schedule Frequency

Route Map